メインページ
METAR-TAF:

METAR-TAF

空港 :

エドモントンNamao, アルバータ州, カナダ

緯度: 53-40N, 経度: 113-28W, 海抜: 688m

現時点の気象観測

当レポートは18分前の06:00(UTC)に作成
の風 5kt
気温 -12°C
湿度 66%
気圧 1017 hPa
視程: 14.5km
高度3400ftの千切れ雲あり
高度9200ftの曇り

METAR: CYED 040600Z AUTO 10005KT 9SM BKN034 OVC092 M12/M17 A3002 RMK SLP219

時間: 00:18 (06:18 UTC)


TAF: 見つかりません

4,000以上の空港の気象観測と天気予報(METAR報とTAF報)

利用可能な観測所は地図上に黄色い丸と赤い丸で示す。

丸の上にカーソルを重ねると観測所名を参照できる。

次にクリックすると気象観測と天気予報を参照できる。

マップの切り替え:黒色「×」印の緑ボタンをクリックして拡大、「-」印の緑ボタンをクリックして縮小、緑色の三角印をクリックして隣りの地図に切り替え


METAR-TAF: